sensor_id;sensor_type;location;lat;lon;timestamp;temperature;humidity
1355;DHT22;671;48.972;9.276;2022-07-23T00:02:16;25.40;96.50
1355;DHT22;671;48.972;9.276;2022-07-23T00:04:43;25.40;96.80
1355;DHT22;671;48.972;9.276;2022-07-23T00:07:09;25.40;96.00
1355;DHT22;671;48.972;9.276;2022-07-23T00:09:36;25.40;96.00
1355;DHT22;671;48.972;9.276;2022-07-23T00:12:02;25.40;96.00
1355;DHT22;671;48.972;9.276;2022-07-23T00:14:29;25.40;96.00
1355;DHT22;671;48.972;9.276;2022-07-23T00:16:55;25.40;95.60
1355;DHT22;671;48.972;9.276;2022-07-23T00:19:22;25.40;95.60
1355;DHT22;671;48.972;9.276;2022-07-23T00:21:48;25.40;95.40
1355;DHT22;671;48.972;9.276;2022-07-23T00:24:15;25.40;95.50
1355;DHT22;671;48.972;9.276;2022-07-23T00:26:41;25.40;95.30
1355;DHT22;671;48.972;9.276;2022-07-23T00:29:08;25.40;95.20
1355;DHT22;671;48.972;9.276;2022-07-23T00:31:34;25.40;95.20
1355;DHT22;671;48.972;9.276;2022-07-23T00:34:01;25.40;94.90
1355;DHT22;671;48.972;9.276;2022-07-23T00:36:28;25.40;94.50
1355;DHT22;671;48.972;9.276;2022-07-23T00:38:54;25.40;94.20
1355;DHT22;671;48.972;9.276;2022-07-23T00:41:21;25.40;94.30
1355;DHT22;671;48.972;9.276;2022-07-23T00:43:48;25.40;93.90
1355;DHT22;671;48.972;9.276;2022-07-23T00:46:22;25.40;94.00
1355;DHT22;671;48.972;9.276;2022-07-23T00:48:49;25.40;93.80
1355;DHT22;671;48.972;9.276;2022-07-23T00:51:15;25.40;93.80
1355;DHT22;671;48.972;9.276;2022-07-23T00:53:43;25.40;93.90
1355;DHT22;671;48.972;9.276;2022-07-23T00:56:10;25.40;93.60
1355;DHT22;671;48.972;9.276;2022-07-23T00:58:38;25.40;93.80
1355;DHT22;671;48.972;9.276;2022-07-23T01:01:05;25.40;93.70
1355;DHT22;671;48.972;9.276;2022-07-23T01:03:32;25.30;94.10
1355;DHT22;671;48.972;9.276;2022-07-23T01:05:58;25.30;94.10
1355;DHT22;671;48.972;9.276;2022-07-23T01:08:25;25.30;94.10
1355;DHT22;671;48.972;9.276;2022-07-23T01:10:52;25.20;93.80
1355;DHT22;671;48.972;9.276;2022-07-23T01:13:18;25.20;93.90
1355;DHT22;671;48.972;9.276;2022-07-23T01:15:45;25.10;94.00
1355;DHT22;671;48.972;9.276;2022-07-23T01:18:12;25.10;93.90
1355;DHT22;671;48.972;9.276;2022-07-23T01:20:39;25.10;94.50
1355;DHT22;671;48.972;9.276;2022-07-23T01:23:05;25.00;94.40
1355;DHT22;671;48.972;9.276;2022-07-23T01:25:32;25.00;94.20
1355;DHT22;671;48.972;9.276;2022-07-23T01:27:59;25.00;94.30
1355;DHT22;671;48.972;9.276;2022-07-23T01:30:25;25.00;94.20
1355;DHT22;671;48.972;9.276;2022-07-23T01:32:52;25.00;94.30
1355;DHT22;671;48.972;9.276;2022-07-23T01:35:18;24.90;94.70
1355;DHT22;671;48.972;9.276;2022-07-23T01:37:45;24.90;94.60
1355;DHT22;671;48.972;9.276;2022-07-23T01:40:12;24.90;95.00
1355;DHT22;671;48.972;9.276;2022-07-23T01:42:38;24.90;94.90
1355;DHT22;671;48.972;9.276;2022-07-23T01:45:05;24.80;95.10
1355;DHT22;671;48.972;9.276;2022-07-23T01:47:32;24.70;95.00
1355;DHT22;671;48.972;9.276;2022-07-23T01:49:58;24.70;95.40
1355;DHT22;671;48.972;9.276;2022-07-23T01:52:25;24.70;95.30
1355;DHT22;671;48.972;9.276;2022-07-23T01:54:51;24.70;95.40
1355;DHT22;671;48.972;9.276;2022-07-23T01:57:18;24.60;95.30
1355;DHT22;671;48.972;9.276;2022-07-23T01:59:45;24.60;95.40
1355;DHT22;671;48.972;9.276;2022-07-23T02:02:11;24.60;95.60
1355;DHT22;671;48.972;9.276;2022-07-23T02:04:38;24.50;95.40
1355;DHT22;671;48.972;9.276;2022-07-23T02:07:05;24.50;95.50
1355;DHT22;671;48.972;9.276;2022-07-23T02:09:32;24.50;95.30
1355;DHT22;671;48.972;9.276;2022-07-23T02:11:59;24.50;95.40
1355;DHT22;671;48.972;9.276;2022-07-23T02:14:26;24.40;95.40
1355;DHT22;671;48.972;9.276;2022-07-23T02:16:52;24.30;95.60
1355;DHT22;671;48.972;9.276;2022-07-23T02:19:19;24.30;95.60
1355;DHT22;671;48.972;9.276;2022-07-23T02:21:45;24.20;95.50
1355;DHT22;671;48.972;9.276;2022-07-23T02:24:12;24.20;95.60
1355;DHT22;671;48.972;9.276;2022-07-23T02:26:38;24.10;95.70
1355;DHT22;671;48.972;9.276;2022-07-23T02:29:05;24.10;95.70
1355;DHT22;671;48.972;9.276;2022-07-23T02:31:32;24.10;95.90
1355;DHT22;671;48.972;9.276;2022-07-23T02:33:59;24.10;95.90
1355;DHT22;671;48.972;9.276;2022-07-23T02:36:26;24.00;96.10
1355;DHT22;671;48.972;9.276;2022-07-23T02:38:52;23.90;96.30
1355;DHT22;671;48.972;9.276;2022-07-23T02:41:19;24.00;96.60
1355;DHT22;671;48.972;9.276;2022-07-23T02:43:46;23.90;96.60
1355;DHT22;671;48.972;9.276;2022-07-23T02:46:12;23.90;96.80
1355;DHT22;671;48.972;9.276;2022-07-23T02:48:39;23.80;96.80
1355;DHT22;671;48.972;9.276;2022-07-23T02:51:05;23.80;96.70
1355;DHT22;671;48.972;9.276;2022-07-23T02:53:32;23.80;96.70
1355;DHT22;671;48.972;9.276;2022-07-23T02:55:58;23.70;96.70
1355;DHT22;671;48.972;9.276;2022-07-23T02:58:25;23.70;97.00
1355;DHT22;671;48.972;9.276;2022-07-23T03:00:53;23.70;97.10
1355;DHT22;671;48.972;9.276;2022-07-23T03:03:19;23.60;97.30
1355;DHT22;671;48.972;9.276;2022-07-23T03:05:46;23.60;97.40
1355;DHT22;671;48.972;9.276;2022-07-23T03:08:13;23.60;97.60
1355;DHT22;671;48.972;9.276;2022-07-23T03:10:39;23.60;97.60
1355;DHT22;671;48.972;9.276;2022-07-23T03:13:06;23.60;97.60
1355;DHT22;671;48.972;9.276;2022-07-23T03:15:32;23.60;97.50
1355;DHT22;671;48.972;9.276;2022-07-23T03:17:59;23.60;97.50
1355;DHT22;671;48.972;9.276;2022-07-23T03:20:25;23.70;97.60
1355;DHT22;671;48.972;9.276;2022-07-23T03:22:52;23.60;97.70
1355;DHT22;671;48.972;9.276;2022-07-23T03:25:18;23.60;97.80
1355;DHT22;671;48.972;9.276;2022-07-23T03:27:44;23.50;97.70
1355;DHT22;671;48.972;9.276;2022-07-23T03:30:11;23.50;97.80
1355;DHT22;671;48.972;9.276;2022-07-23T03:32:38;23.40;97.80
1355;DHT22;671;48.972;9.276;2022-07-23T03:35:05;23.40;97.80
1355;DHT22;671;48.972;9.276;2022-07-23T03:37:32;23.40;97.90
1355;DHT22;671;48.972;9.276;2022-07-23T03:39:58;23.40;98.00
1355;DHT22;671;48.972;9.276;2022-07-23T03:42:25;23.40;98.10
1355;DHT22;671;48.972;9.276;2022-07-23T03:44:51;23.40;98.20
1355;DHT22;671;48.972;9.276;2022-07-23T03:47:19;23.30;98.50
1355;DHT22;671;48.972;9.276;2022-07-23T03:49:48;23.30;98.30
1355;DHT22;671;48.972;9.276;2022-07-23T03:52:15;23.20;98.50
1355;DHT22;671;48.972;9.276;2022-07-23T03:54:41;23.20;98.60
1355;DHT22;671;48.972;9.276;2022-07-23T03:57:08;23.20;98.60
1355;DHT22;671;48.972;9.276;2022-07-23T03:59:34;23.20;98.80
1355;DHT22;671;48.972;9.276;2022-07-23T04:02:01;23.20;98.80
1355;DHT22;671;48.972;9.276;2022-07-23T04:04:27;23.30;98.80
1355;DHT22;671;48.972;9.276;2022-07-23T04:06:54;23.30;98.90
1355;DHT22;671;48.972;9.276;2022-07-23T04:09:20;23.30;99.10
1355;DHT22;671;48.972;9.276;2022-07-23T04:11:46;23.30;99.90
1355;DHT22;671;48.972;9.276;2022-07-23T04:14:13;23.30;99.90
1355;DHT22;671;48.972;9.276;2022-07-23T04:16:39;23.20;99.90
1355;DHT22;671;48.972;9.276;2022-07-23T04:19:06;23.20;99.80
1355;DHT22;671;48.972;9.276;2022-07-23T04:21:32;23.30;99.70
1355;DHT22;671;48.972;9.276;2022-07-23T04:23:59;23.40;99.90
1355;DHT22;671;48.972;9.276;2022-07-23T04:26:25;23.40;99.70
1355;DHT22;671;48.972;9.276;2022-07-23T04:28:52;23.40;99.70
1355;DHT22;671;48.972;9.276;2022-07-23T04:31:18;23.50;99.60
1355;DHT22;671;48.972;9.276;2022-07-23T04:33:45;23.50;99.70
1355;DHT22;671;48.972;9.276;2022-07-23T04:36:11;23.60;99.70
1355;DHT22;671;48.972;9.276;2022-07-23T04:38:38;23.60;99.80
1355;DHT22;671;48.972;9.276;2022-07-23T04:41:04;23.70;99.80
1355;DHT22;671;48.972;9.276;2022-07-23T04:43:31;23.70;99.60
1355;DHT22;671;48.972;9.276;2022-07-23T04:45:57;23.80;99.30
1355;DHT22;671;48.972;9.276;2022-07-23T04:48:24;23.80;99.10
1355;DHT22;671;48.972;9.276;2022-07-23T04:50:50;23.80;99.30
1355;DHT22;671;48.972;9.276;2022-07-23T04:53:17;23.80;99.40
1355;DHT22;671;48.972;9.276;2022-07-23T04:55:44;23.80;99.60
1355;DHT22;671;48.972;9.276;2022-07-23T04:58:11;23.80;99.40
1355;DHT22;671;48.972;9.276;2022-07-23T05:00:37;23.90;99.70
1355;DHT22;671;48.972;9.276;2022-07-23T05:03:04;23.90;99.80
1355;DHT22;671;48.972;9.276;2022-07-23T05:05:30;24.00;99.60
1355;DHT22;671;48.972;9.276;2022-07-23T05:07:57;24.10;99.60
1355;DHT22;671;48.972;9.276;2022-07-23T05:10:23;24.30;99.70
1355;DHT22;671;48.972;9.276;2022-07-23T05:12:50;24.20;99.00
1355;DHT22;671;48.972;9.276;2022-07-23T05:15:16;24.10;99.00
1355;DHT22;671;48.972;9.276;2022-07-23T05:17:43;24.10;99.20
1355;DHT22;671;48.972;9.276;2022-07-23T05:20:10;24.20;99.50
1355;DHT22;671;48.972;9.276;2022-07-23T05:22:36;24.30;99.30
1355;DHT22;671;48.972;9.276;2022-07-23T05:25:03;24.40;99.30
1355;DHT22;671;48.972;9.276;2022-07-23T05:27:31;24.50;98.80
1355;DHT22;671;48.972;9.276;2022-07-23T05:29:57;24.70;99.30
1355;DHT22;671;48.972;9.276;2022-07-23T05:32:24;25.60;99.00
1355;DHT22;671;48.972;9.276;2022-07-23T05:34:50;26.30;97.10
1355;DHT22;671;48.972;9.276;2022-07-23T05:37:17;27.00;96.60
1355;DHT22;671;48.972;9.276;2022-07-23T05:39:43;27.80;95.30
1355;DHT22;671;48.972;9.276;2022-07-23T05:42:10;27.10;95.50
1355;DHT22;671;48.972;9.276;2022-07-23T05:44:36;26.50;97.00
1355;DHT22;671;48.972;9.276;2022-07-23T05:47:03;26.00;99.50
1355;DHT22;671;48.972;9.276;2022-07-23T05:49:29;25.60;99.80
1355;DHT22;671;48.972;9.276;2022-07-23T05:51:56;25.40;99.80
1355;DHT22;671;48.972;9.276;2022-07-23T05:54:22;25.30;99.70
1355;DHT22;671;48.972;9.276;2022-07-23T05:56:49;25.20;99.90
1355;DHT22;671;48.972;9.276;2022-07-23T05:59:16;25.10;99.90
1355;DHT22;671;48.972;9.276;2022-07-23T06:01:43;24.90;99.90
1355;DHT22;671;48.972;9.276;2022-07-23T06:04:09;24.80;99.90
1355;DHT22;671;48.972;9.276;2022-07-23T06:06:36;24.70;99.90
1355;DHT22;671;48.972;9.276;2022-07-23T06:09:02;24.60;99.90
1355;DHT22;671;48.972;9.276;2022-07-23T06:11:29;24.50;99.90
1355;DHT22;671;48.972;9.276;2022-07-23T06:13:56;24.40;99.90
1355;DHT22;671;48.972;9.276;2022-07-23T06:16:22;24.40;99.90
1355;DHT22;671;48.972;9.276;2022-07-23T06:18:49;24.20;99.90
1355;DHT22;671;48.972;9.276;2022-07-23T06:21:15;24.10;99.90
1355;DHT22;671;48.972;9.276;2022-07-23T06:23:41;24.10;99.90
1355;DHT22;671;48.972;9.276;2022-07-23T06:26:08;24.00;99.90
1355;DHT22;671;48.972;9.276;2022-07-23T06:28:34;24.00;99.90
1355;DHT22;671;48.972;9.276;2022-07-23T06:31:01;24.00;99.90
1355;DHT22;671;48.972;9.276;2022-07-23T06:33:27;24.10;99.90
1355;DHT22;671;48.972;9.276;2022-07-23T06:35:54;24.10;99.90
1355;DHT22;671;48.972;9.276;2022-07-23T06:38:20;24.20;99.90
1355;DHT22;671;48.972;9.276;2022-07-23T06:40:47;24.10;99.90
1355;DHT22;671;48.972;9.276;2022-07-23T06:43:13;24.20;99.90
1355;DHT22;671;48.972;9.276;2022-07-23T06:45:40;24.20;99.90
1355;DHT22;671;48.972;9.276;2022-07-23T06:48:06;24.30;99.90
1355;DHT22;671;48.972;9.276;2022-07-23T06:50:33;24.20;99.90
1355;DHT22;671;48.972;9.276;2022-07-23T06:52:59;24.20;99.90
1355;DHT22;671;48.972;9.276;2022-07-23T06:55:26;24.20;99.90
1355;DHT22;671;48.972;9.276;2022-07-23T06:57:52;24.20;99.90
1355;DHT22;671;48.972;9.276;2022-07-23T07:00:19;24.10;99.90
1355;DHT22;671;48.972;9.276;2022-07-23T07:02:46;24.00;99.90
1355;DHT22;671;48.972;9.276;2022-07-23T07:05:12;23.90;99.90
1355;DHT22;671;48.972;9.276;2022-07-23T07:07:39;23.70;99.90
1355;DHT22;671;48.972;9.276;2022-07-23T07:10:05;23.60;99.90
1355;DHT22;671;48.972;9.276;2022-07-23T07:12:32;23.50;99.90
1355;DHT22;671;48.972;9.276;2022-07-23T07:14:59;23.30;99.90
1355;DHT22;671;48.972;9.276;2022-07-23T07:17:25;23.10;99.90
1355;DHT22;671;48.972;9.276;2022-07-23T07:19:52;22.90;99.90
1355;DHT22;671;48.972;9.276;2022-07-23T07:22:18;22.70;99.90
1355;DHT22;671;48.972;9.276;2022-07-23T07:24:45;22.60;99.90
1355;DHT22;671;48.972;9.276;2022-07-23T07:27:11;22.60;99.90
1355;DHT22;671;48.972;9.276;2022-07-23T07:29:38;22.50;99.90
1355;DHT22;671;48.972;9.276;2022-07-23T07:32:04;22.40;99.90
1355;DHT22;671;48.972;9.276;2022-07-23T07:34:31;22.50;99.90
1355;DHT22;671;48.972;9.276;2022-07-23T07:36:57;22.50;99.90
1355;DHT22;671;48.972;9.276;2022-07-23T07:39:24;22.50;99.90
1355;DHT22;671;48.972;9.276;2022-07-23T07:41:50;22.50;99.90
1355;DHT22;671;48.972;9.276;2022-07-23T07:44:17;22.50;99.90
1355;DHT22;671;48.972;9.276;2022-07-23T07:46:43;22.60;99.90
1355;DHT22;671;48.972;9.276;2022-07-23T07:49:10;22.80;99.90
1355;DHT22;671;48.972;9.276;2022-07-23T07:51:36;22.90;99.90
1355;DHT22;671;48.972;9.276;2022-07-23T07:54:03;23.00;99.90
1355;DHT22;671;48.972;9.276;2022-07-23T07:56:29;23.30;99.90
1355;DHT22;671;48.972;9.276;2022-07-23T07:58:56;23.50;99.90
1355;DHT22;671;48.972;9.276;2022-07-23T08:01:22;23.70;99.90
1355;DHT22;671;48.972;9.276;2022-07-23T08:03:49;23.90;99.90
1355;DHT22;671;48.972;9.276;2022-07-23T08:06:15;24.00;99.90
1355;DHT22;671;48.972;9.276;2022-07-23T08:08:42;24.10;99.90
1355;DHT22;671;48.972;9.276;2022-07-23T08:11:08;24.20;99.90
1355;DHT22;671;48.972;9.276;2022-07-23T08:13:35;24.30;99.90
1355;DHT22;671;48.972;9.276;2022-07-23T08:16:01;24.40;99.90
1355;DHT22;671;48.972;9.276;2022-07-23T08:18:28;24.50;99.90
1355;DHT22;671;48.972;9.276;2022-07-23T08:20:54;24.40;99.90
1355;DHT22;671;48.972;9.276;2022-07-23T08:23:21;24.40;99.90
1355;DHT22;671;48.972;9.276;2022-07-23T08:25:47;24.40;99.90
1355;DHT22;671;48.972;9.276;2022-07-23T08:28:14;24.30;99.90
1355;DHT22;671;48.972;9.276;2022-07-23T08:30:44;24.30;99.90
1355;DHT22;671;48.972;9.276;2022-07-23T08:33:13;24.10;99.90
1355;DHT22;671;48.972;9.276;2022-07-23T08:35:42;24.00;99.90
1355;DHT22;671;48.972;9.276;2022-07-23T08:38:10;23.90;99.90
1355;DHT22;671;48.972;9.276;2022-07-23T08:40:40;23.90;99.90
1355;DHT22;671;48.972;9.276;2022-07-23T08:43:09;23.90;99.90
1355;DHT22;671;48.972;9.276;2022-07-23T08:45:42;23.90;99.90
1355;DHT22;671;48.972;9.276;2022-07-23T08:48:16;24.00;99.90
1355;DHT22;671;48.972;9.276;2022-07-23T08:50:45;24.10;99.90
1355;DHT22;671;48.972;9.276;2022-07-23T08:53:12;24.10;99.90
1355;DHT22;671;48.972;9.276;2022-07-23T08:55:40;24.10;99.90
1355;DHT22;671;48.972;9.276;2022-07-23T08:58:09;24.20;99.90
1355;DHT22;671;48.972;9.276;2022-07-23T09:00:36;24.20;99.90
1355;DHT22;671;48.972;9.276;2022-07-23T09:03:03;24.30;99.90
1355;DHT22;671;48.972;9.276;2022-07-23T09:05:29;24.40;99.90
1355;DHT22;671;48.972;9.276;2022-07-23T09:08:09;24.70;99.90
1355;DHT22;671;48.972;9.276;2022-07-23T09:10:54;24.90;99.90
1355;DHT22;671;48.972;9.276;2022-07-23T09:21:09;26.00;99.90
1355;DHT22;671;48.972;9.276;2022-07-23T09:23:58;26.00;99.90
1355;DHT22;671;48.972;9.276;2022-07-23T09:28:57;26.30;99.90
1355;DHT22;671;48.972;9.276;2022-07-23T09:31:25;26.30;99.90
1355;DHT22;671;48.972;9.276;2022-07-23T09:33:51;26.40;99.90
1355;DHT22;671;48.972;9.276;2022-07-23T09:36:30;26.50;99.90
1355;DHT22;671;48.972;9.276;2022-07-23T09:38:57;26.60;99.90
1355;DHT22;671;48.972;9.276;2022-07-23T09:41:24;26.50;99.90
1355;DHT22;671;48.972;9.276;2022-07-23T09:43:55;26.60;99.90
1355;DHT22;671;48.972;9.276;2022-07-23T09:46:24;26.70;99.90
1355;DHT22;671;48.972;9.276;2022-07-23T09:48:52;26.80;99.90
1355;DHT22;671;48.972;9.276;2022-07-23T09:51:19;27.00;99.90
1355;DHT22;671;48.972;9.276;2022-07-23T09:54:02;27.20;99.90
1355;DHT22;671;48.972;9.276;2022-07-23T09:56:29;27.50;99.90
1355;DHT22;671;48.972;9.276;2022-07-23T09:58:56;27.70;99.90
1355;DHT22;671;48.972;9.276;2022-07-23T10:01:38;27.80;99.90
1355;DHT22;671;48.972;9.276;2022-07-23T10:04:06;27.90;99.90
1355;DHT22;671;48.972;9.276;2022-07-23T10:06:33;27.90;99.90
1355;DHT22;671;48.972;9.276;2022-07-23T10:09:01;27.80;99.90
1355;DHT22;671;48.972;9.276;2022-07-23T10:11:30;27.80;99.90
1355;DHT22;671;48.972;9.276;2022-07-23T10:13:57;27.80;99.90
1355;DHT22;671;48.972;9.276;2022-07-23T10:16:25;27.70;99.90
1355;DHT22;671;48.972;9.276;2022-07-23T10:18:52;27.60;99.90
1355;DHT22;671;48.972;9.276;2022-07-23T10:22:07;27.60;99.90
1355;DHT22;671;48.972;9.276;2022-07-23T10:30:03;27.80;99.90
1355;DHT22;671;48.972;9.276;2022-07-23T10:38:33;28.10;99.90
1355;DHT22;671;48.972;9.276;2022-07-23T10:41:04;28.00;99.90
1355;DHT22;671;48.972;9.276;2022-07-23T10:43:31;28.10;99.90
1355;DHT22;671;48.972;9.276;2022-07-23T10:46:22;28.10;99.90
1355;DHT22;671;48.972;9.276;2022-07-23T10:49:29;28.20;99.90
1355;DHT22;671;48.972;9.276;2022-07-23T10:52:15;28.40;99.90
1355;DHT22;671;48.972;9.276;2022-07-23T10:57:26;28.30;99.80
1355;DHT22;671;48.972;9.276;2022-07-23T11:02:39;28.40;99.90
1355;DHT22;671;48.972;9.276;2022-07-23T11:05:15;28.70;99.90
1355;DHT22;671;48.972;9.276;2022-07-23T11:10:42;28.90;98.90
1355;DHT22;671;48.972;9.276;2022-07-23T11:16:14;29.10;97.00
1355;DHT22;671;48.972;9.276;2022-07-23T11:26:58;29.40;96.20
1355;DHT22;671;48.972;9.276;2022-07-23T11:32:18;29.40;97.10
1355;DHT22;671;48.972;9.276;2022-07-23T11:34:47;29.50;96.30
1355;DHT22;671;48.972;9.276;2022-07-23T11:39:55;29.70;96.90
1355;DHT22;671;48.972;9.276;2022-07-23T11:42:22;29.70;96.80
1355;DHT22;671;48.972;9.276;2022-07-23T11:44:50;29.70;96.20
1355;DHT22;671;48.972;9.276;2022-07-23T11:47:24;29.60;96.70
1355;DHT22;671;48.972;9.276;2022-07-23T11:49:59;29.70;96.90
1355;DHT22;671;48.972;9.276;2022-07-23T11:52:26;29.80;96.30
1355;DHT22;671;48.972;9.276;2022-07-23T11:55:02;30.00;96.90
1355;DHT22;671;48.972;9.276;2022-07-23T11:57:32;30.10;95.90
1355;DHT22;671;48.972;9.276;2022-07-23T12:00:11;30.20;96.10
1355;DHT22;671;48.972;9.276;2022-07-23T12:02:40;30.20;95.50
1355;DHT22;671;48.972;9.276;2022-07-23T12:05:07;30.10;94.30
1355;DHT22;671;48.972;9.276;2022-07-23T12:07:40;30.00;94.10
1355;DHT22;671;48.972;9.276;2022-07-23T12:15:16;30.60;94.50
1355;DHT22;671;48.972;9.276;2022-07-23T12:17:46;30.70;94.00
1355;DHT22;671;48.972;9.276;2022-07-23T12:20:15;30.70;93.50
1355;DHT22;671;48.972;9.276;2022-07-23T12:22:44;30.70;93.30
1355;DHT22;671;48.972;9.276;2022-07-23T12:25:19;30.70;93.10
1355;DHT22;671;48.972;9.276;2022-07-23T12:27:46;30.60;93.10
1355;DHT22;671;48.972;9.276;2022-07-23T12:30:26;30.70;93.30
1355;DHT22;671;48.972;9.276;2022-07-23T12:32:55;30.80;93.20
1355;DHT22;671;48.972;9.276;2022-07-23T12:35:23;30.90;92.90
1355;DHT22;671;48.972;9.276;2022-07-23T12:38:04;30.90;92.20
1355;DHT22;671;48.972;9.276;2022-07-23T12:43:04;30.80;92.70
1355;DHT22;671;48.972;9.276;2022-07-23T12:45:50;31.00;91.60
1355;DHT22;671;48.972;9.276;2022-07-23T12:53:28;31.50;91.90
1355;DHT22;671;48.972;9.276;2022-07-23T12:56:05;31.50;91.20
1355;DHT22;671;48.972;9.276;2022-07-23T12:58:54;31.20;90.40
1355;DHT22;671;48.972;9.276;2022-07-23T13:06:23;31.10;91.10
1355;DHT22;671;48.972;9.276;2022-07-23T13:08:49;31.10;91.00
1355;DHT22;671;48.972;9.276;2022-07-23T13:11:16;31.10;90.70
1355;DHT22;671;48.972;9.276;2022-07-23T13:13:42;31.10;91.00
1355;DHT22;671;48.972;9.276;2022-07-23T13:16:09;31.20;91.30
1355;DHT22;671;48.972;9.276;2022-07-23T13:18:35;31.30;90.90
1355;DHT22;671;48.972;9.276;2022-07-23T13:21:02;31.20;90.60
1355;DHT22;671;48.972;9.276;2022-07-23T13:23:28;31.00;90.80
1355;DHT22;671;48.972;9.276;2022-07-23T13:25:55;30.90;91.30
1355;DHT22;671;48.972;9.276;2022-07-23T13:28:22;30.80;90.70
1355;DHT22;671;48.972;9.276;2022-07-23T13:30:50;30.70;91.00
1355;DHT22;671;48.972;9.276;2022-07-23T13:33:22;30.80;91.00
1355;DHT22;671;48.972;9.276;2022-07-23T13:35:50;30.90;91.20
1355;DHT22;671;48.972;9.276;2022-07-23T13:38:18;31.10;91.30
1355;DHT22;671;48.972;9.276;2022-07-23T13:40:47;31.00;90.90
1355;DHT22;671;48.972;9.276;2022-07-23T13:43:17;31.10;90.80
1355;DHT22;671;48.972;9.276;2022-07-23T13:45:46;31.20;90.50
1355;DHT22;671;48.972;9.276;2022-07-23T13:48:13;31.40;90.30
1355;DHT22;671;48.972;9.276;2022-07-23T13:50:41;31.40;90.10
1355;DHT22;671;48.972;9.276;2022-07-23T13:53:11;31.50;89.80
1355;DHT22;671;48.972;9.276;2022-07-23T13:55:39;31.60;88.80
1355;DHT22;671;48.972;9.276;2022-07-23T13:58:06;31.40;87.10
1355;DHT22;671;48.972;9.276;2022-07-23T14:00:33;31.40;86.90
1355;DHT22;671;48.972;9.276;2022-07-23T14:03:00;31.40;86.40
1355;DHT22;671;48.972;9.276;2022-07-23T14:05:28;31.30;86.80
1355;DHT22;671;48.972;9.276;2022-07-23T14:07:55;31.40;87.00
1355;DHT22;671;48.972;9.276;2022-07-23T14:10:23;31.30;85.60
1355;DHT22;671;48.972;9.276;2022-07-23T14:12:51;31.40;86.50
1355;DHT22;671;48.972;9.276;2022-07-23T14:15:18;31.50;87.30
1355;DHT22;671;48.972;9.276;2022-07-23T14:17:45;31.50;84.60
1355;DHT22;671;48.972;9.276;2022-07-23T14:20:13;31.60;86.00
1355;DHT22;671;48.972;9.276;2022-07-23T14:22:40;31.80;86.10
1355;DHT22;671;48.972;9.276;2022-07-23T14:25:08;31.90;85.50
1355;DHT22;671;48.972;9.276;2022-07-23T14:27:35;31.90;84.50
1355;DHT22;671;48.972;9.276;2022-07-23T14:30:07;31.90;84.60
1355;DHT22;671;48.972;9.276;2022-07-23T14:32:35;31.90;85.80
1355;DHT22;671;48.972;9.276;2022-07-23T14:35:03;32.00;83.70
1355;DHT22;671;48.972;9.276;2022-07-23T14:37:30;32.00;83.70
1355;DHT22;671;48.972;9.276;2022-07-23T14:39:57;31.90;82.80
1355;DHT22;671;48.972;9.276;2022-07-23T14:42:23;31.80;83.10
1355;DHT22;671;48.972;9.276;2022-07-23T14:44:50;31.90;84.50
1355;DHT22;671;48.972;9.276;2022-07-23T14:47:16;31.90;83.10
1355;DHT22;671;48.972;9.276;2022-07-23T14:49:43;31.90;82.30
1355;DHT22;671;48.972;9.276;2022-07-23T14:52:10;31.80;83.40
1355;DHT22;671;48.972;9.276;2022-07-23T14:54:36;31.70;84.30
1355;DHT22;671;48.972;9.276;2022-07-23T14:57:03;31.50;83.30
1355;DHT22;671;48.972;9.276;2022-07-23T14:59:30;31.50;84.90
1355;DHT22;671;48.972;9.276;2022-07-23T15:01:57;31.60;83.80
1355;DHT22;671;48.972;9.276;2022-07-23T15:04:24;31.70;83.90
1355;DHT22;671;48.972;9.276;2022-07-23T15:06:51;31.50;83.50
1355;DHT22;671;48.972;9.276;2022-07-23T15:09:18;31.50;83.50
1355;DHT22;671;48.972;9.276;2022-07-23T15:11:44;31.50;83.80
1355;DHT22;671;48.972;9.276;2022-07-23T15:14:12;31.60;83.40
1355;DHT22;671;48.972;9.276;2022-07-23T15:16:38;31.70;83.00
1355;DHT22;671;48.972;9.276;2022-07-23T15:19:05;31.90;83.20
1355;DHT22;671;48.972;9.276;2022-07-23T15:21:31;32.00;83.70
1355;DHT22;671;48.972;9.276;2022-07-23T15:23:58;32.10;83.10
1355;DHT22;671;48.972;9.276;2022-07-23T15:26:26;32.00;81.90
1355;DHT22;671;48.972;9.276;2022-07-23T15:28:53;32.00;82.70
1355;DHT22;671;48.972;9.276;2022-07-23T15:31:20;32.00;82.40
1355;DHT22;671;48.972;9.276;2022-07-23T15:33:46;31.90;82.90
1355;DHT22;671;48.972;9.276;2022-07-23T15:36:14;32.00;83.80
1355;DHT22;671;48.972;9.276;2022-07-23T15:38:40;32.10;84.20
1355;DHT22;671;48.972;9.276;2022-07-23T15:41:07;32.00;83.00
1355;DHT22;671;48.972;9.276;2022-07-23T15:43:33;32.00;82.60
1355;DHT22;671;48.972;9.276;2022-07-23T15:46:00;32.00;83.10
1355;DHT22;671;48.972;9.276;2022-07-23T15:48:26;32.00;84.10
1355;DHT22;671;48.972;9.276;2022-07-23T15:50:53;31.90;83.60
1355;DHT22;671;48.972;9.276;2022-07-23T15:53:19;31.70;83.60
1355;DHT22;671;48.972;9.276;2022-07-23T15:55:46;31.50;84.60
1355;DHT22;671;48.972;9.276;2022-07-23T15:58:14;31.40;85.70
1355;DHT22;671;48.972;9.276;2022-07-23T16:00:40;31.40;85.80
1355;DHT22;671;48.972;9.276;2022-07-23T16:03:07;31.20;85.90
1355;DHT22;671;48.972;9.276;2022-07-23T16:05:34;31.00;85.80
1355;DHT22;671;48.972;9.276;2022-07-23T16:08:04;31.00;85.90
1355;DHT22;671;48.972;9.276;2022-07-23T16:10:30;31.10;85.90
1355;DHT22;671;48.972;9.276;2022-07-23T16:12:57;31.00;85.50
1355;DHT22;671;48.972;9.276;2022-07-23T16:15:24;31.00;86.50
1355;DHT22;671;48.972;9.276;2022-07-23T16:17:50;31.10;86.00
1355;DHT22;671;48.972;9.276;2022-07-23T16:20:17;31.10;87.40
1355;DHT22;671;48.972;9.276;2022-07-23T16:22:43;31.10;86.80
1355;DHT22;671;48.972;9.276;2022-07-23T16:25:10;31.00;87.10
1355;DHT22;671;48.972;9.276;2022-07-23T16:27:38;30.90;86.50
1355;DHT22;671;48.972;9.276;2022-07-23T16:30:06;30.80;86.40
1355;DHT22;671;48.972;9.276;2022-07-23T16:32:33;30.80;87.10
1355;DHT22;671;48.972;9.276;2022-07-23T16:35:00;30.90;88.00
1355;DHT22;671;48.972;9.276;2022-07-23T16:37:26;30.90;87.50
1355;DHT22;671;48.972;9.276;2022-07-23T16:39:53;30.80;87.30
1355;DHT22;671;48.972;9.276;2022-07-23T16:42:20;30.80;87.10
1355;DHT22;671;48.972;9.276;2022-07-23T16:44:46;30.70;86.80
1355;DHT22;671;48.972;9.276;2022-07-23T16:47:13;30.70;87.40
1355;DHT22;671;48.972;9.276;2022-07-23T16:49:39;30.60;86.50
1355;DHT22;671;48.972;9.276;2022-07-23T16:52:06;30.50;87.00
1355;DHT22;671;48.972;9.276;2022-07-23T16:54:32;30.50;86.50
1355;DHT22;671;48.972;9.276;2022-07-23T16:56:59;30.50;87.00
1355;DHT22;671;48.972;9.276;2022-07-23T16:59:25;30.40;88.00
1355;DHT22;671;48.972;9.276;2022-07-23T17:01:52;30.30;88.20
1355;DHT22;671;48.972;9.276;2022-07-23T17:04:18;30.20;88.00
1355;DHT22;671;48.972;9.276;2022-07-23T17:06:45;30.10;88.90
1355;DHT22;671;48.972;9.276;2022-07-23T17:09:12;29.90;88.80
1355;DHT22;671;48.972;9.276;2022-07-23T17:11:38;29.70;89.60
1355;DHT22;671;48.972;9.276;2022-07-23T17:14:05;29.70;89.60
1355;DHT22;671;48.972;9.276;2022-07-23T17:16:32;29.60;89.50
1355;DHT22;671;48.972;9.276;2022-07-23T17:18:58;29.50;90.00
1355;DHT22;671;48.972;9.276;2022-07-23T17:21:25;29.40;90.10
1355;DHT22;671;48.972;9.276;2022-07-23T17:23:51;29.40;90.20
1355;DHT22;671;48.972;9.276;2022-07-23T17:26:18;29.50;90.30